Huyton-with-Roby, United Kingdom
Current Conditions -  °F | °C
As of 6:20 PM on Saturday 25 Oct 2014 (Local Time) from EGGP Reporting Station
Scattered Clouds Scattered Clouds  
Wind Chill: 55°   Ceiling: Unl
Heat Index: 55°   Visibility: 6mi
Dew Point: 48°   Wind: 17mph
Humidity: 77%   Direction: 230°SW
Pressure: 29.94"   Gusts: NA
Location:  53.41°N, 2.84°W
Report Text: EGGP 251720Z 23015KT 9999 FEW025 SCT040 13/09 Q1014
Loading
Personal Weather Stations






























Interactive Weather Map
Tropical Storm Tracking
New forecast layout! Learn more

10-Day Weather Forecast

Advertisements
Track Severe Weather on mobile